Time;durP1;ratioP1;P1;durP2;ratioP2;P2;SDS_P1;SDS_P2;PMS_P1;PMS_P2;Temp;Humidity;BMP_temperature;BMP_pressure;BME280_temperature;BME280_humidity;BME280_pressure;Samples;Min_cycle;Max_cycle;Signal;HPM_P1;HPM_P2
2022/10/23 00:01:11;;;;;;;7.43;4.90;;;;;;;;;;5153334;27;20815;-71
2022/10/23 00:03:40;;;;;;;5.57;5.07;;;;;;;;;;5153936;27;20447;-71
2022/10/23 00:06:08;;;;;;;12.10;4.80;;;;;;;;;;5154409;27;20988;-71
2022/10/23 00:08:35;;;;;;;8.07;4.60;;;;;;;;;;5154220;27;20975;-71
2022/10/23 00:11:02;;;;;;;5.20;3.67;;;;;;;;;;5153550;27;20460;-71
2022/10/23 00:13:29;;;;;;;4.67;4.17;;;;;;;;;;5153516;27;20487;-71
2022/10/23 00:15:56;;;;;;;7.73;4.90;;;;;;;;;;5151366;27;20972;-72
2022/10/23 00:18:23;;;;;;;4.77;4.17;;;;;;;;;;5154183;27;20451;-71
2022/10/23 00:20:52;;;;;;;7.50;4.80;;;;;;;;;;5151984;27;20452;-72
2022/10/23 00:23:19;;;;;;;4.67;4.27;;;;;;;;;;5154137;27;20940;-72
2022/10/23 00:25:46;;;;;;;5.20;4.40;;;;;;;;;;5150835;27;20581;-72
2022/10/23 00:28:13;;;;;;;4.83;4.33;;;;;;;;;;5154080;27;20448;-72
2022/10/23 00:30:40;;;;;;;4.63;4.17;;;;;;;;;;5154057;27;20448;-72
2022/10/23 00:33:09;;;;;;;5.60;5.00;;;;;;;;;;5153857;27;20483;-71
2022/10/23 00:35:36;;;;;;;8.73;4.93;;;;;;;;;;5153061;27;20555;-71
2022/10/23 00:38:04;;;;;;;6.27;4.80;;;;;;;;;;5153979;27;20458;-71
2022/10/23 00:40:31;;;;;;;5.43;4.53;;;;;;;;;;5153838;27;20458;-71
2022/10/23 00:42:58;;;;;;;7.00;5.43;;;;;;;;;;5151935;27;20814;-71
2022/10/23 00:45:27;;;;;;;6.50;5.90;;;;;;;;;;5153081;27;20464;-71
2022/10/23 00:47:54;;;;;;;7.20;5.00;;;;;;;;;;5153781;27;20452;-71
2022/10/23 00:50:22;;;;;;;8.30;6.17;;;;;;;;;;5153987;27;20447;-71
2022/10/23 00:52:51;;;;;;;7.13;5.90;;;;;;;;;;5153848;27;20818;-71
2022/10/23 00:55:20;;;;;;;7.73;6.90;;;;;;;;;;5152161;27;20831;-72
2022/10/23 00:57:48;;;;;;;6.90;6.17;;;;;;;;;;5153523;27;20455;-72
2022/10/23 01:00:18;;;;;;;7.60;5.40;;;;;;;;;;5152584;27;20452;-72
2022/10/23 01:02:45;;;;;;;5.70;4.63;;;;;;;;;;5153613;27;20458;-71
2022/10/23 01:05:12;;;;;;;8.97;5.00;;;;;;;;;;5153243;27;20463;-71
2022/10/23 01:07:43;;;;;;;4.80;4.20;;;;;;;;;;5153498;27;20469;-71
2022/10/23 01:10:15;;;;;;;5.47;4.93;;;;;;;;;;5153779;27;20447;-71
2022/10/23 01:12:47;;;;;;;6.43;4.83;;;;;;;;;;5153515;27;20466;-71
2022/10/23 01:15:17;;;;;;;5.70;4.83;;;;;;;;;;5152872;27;20491;-72
2022/10/23 01:17:46;;;;;;;6.90;4.73;;;;;;;;;;5153506;27;20458;-72
2022/10/23 01:20:28;;;;;;;5.93;5.10;;;;;;;;;;5153659;27;20970;-72
2022/10/23 01:23:05;;;;;;;7.53;5.30;;;;;;;;;;5154708;27;20798;-72
2022/10/23 01:25:41;;;;;;;5.07;4.57;;;;;;;;;;5156600;27;20477;-71
2022/10/23 01:28:11;;;;;;;5.20;4.63;;;;;;;;;;5157608;27;20451;-71
2022/10/23 01:30:39;;;;;;;9.23;5.63;;;;;;;;;;5155300;27;21490;-72
2022/10/23 01:33:08;;;;;;;4.93;4.20;;;;;;;;;;5157359;27;20790;-71
2022/10/23 01:35:36;;;;;;;5.83;4.43;;;;;;;;;;5153799;27;20477;-72
2022/10/23 01:38:06;;;;;;;9.00;6.90;;;;;;;;;;5157392;27;20862;-72
2022/10/23 01:40:35;;;;;;;8.13;6.00;;;;;;;;;;5157183;27;20459;-72
2022/10/23 01:43:04;;;;;;;8.30;4.80;;;;;;;;;;5154924;27;20452;-71
2022/10/23 01:45:37;;;;;;;5.27;4.30;;;;;;;;;;5156414;27;20980;-71
2022/10/23 01:48:05;;;;;;;4.20;3.73;;;;;;;;;;5157108;27;20462;-71
2022/10/23 01:50:33;;;;;;;5.67;4.10;;;;;;;;;;5156876;27;20454;-71
2022/10/23 01:53:01;;;;;;;7.57;4.47;;;;;;;;;;5157013;27;20447;-72
2022/10/23 01:55:28;;;;;;;5.83;4.83;;;;;;;;;;5156150;27;20852;-72
2022/10/23 01:57:55;;;;;;;5.00;4.50;;;;;;;;;;5156617;27;20818;-72
2022/10/23 02:00:22;;;;;;;6.40;4.80;;;;;;;;;;5155432;27;20802;-72
2022/10/23 02:02:52;;;;;;;6.20;4.67;;;;;;;;;;5156703;27;20440;-71
2022/10/23 02:05:21;;;;;;;4.53;3.93;;;;;;;;;;5154575;27;20468;-71
2022/10/23 02:07:49;;;;;;;4.80;4.40;;;;;;;;;;5156585;27;20450;-71
2022/10/23 02:10:16;;;;;;;4.80;4.03;;;;;;;;;;5155148;27;20439;-71
2022/10/23 02:12:49;;;;;;;4.37;3.97;;;;;;;;;;5156183;27;20460;-71
2022/10/23 02:15:20;;;;;;;5.97;4.10;;;;;;;;;;5155769;27;20494;-71
2022/10/23 02:17:51;;;;;;;8.13;4.30;;;;;;;;;;5156366;27;20444;-71
2022/10/23 02:20:24;;;;;;;5.47;4.43;;;;;;;;;;5156619;27;20452;-71
2022/10/23 02:22:55;;;;;;;5.77;4.73;;;;;;;;;;5156389;27;20451;-71
2022/10/23 02:25:27;;;;;;;4.33;3.80;;;;;;;;;;5155864;27;20474;-71
2022/10/23 02:27:56;;;;;;;6.57;4.87;;;;;;;;;;5156295;27;20447;-71
2022/10/23 02:30:23;;;;;;;5.30;4.63;;;;;;;;;;5156275;27;20559;-71
2022/10/23 02:32:51;;;;;;;5.43;4.60;;;;;;;;;;5155524;27;20459;-71
2022/10/23 02:35:19;;;;;;;4.50;3.93;;;;;;;;;;5155311;27;20483;-71
2022/10/23 02:37:54;;;;;;;17.83;5.70;;;;;;;;;;5155966;27;20455;-71
2022/10/23 02:40:21;;;;;;;6.23;4.80;;;;;;;;;;5154115;27;20457;-71
2022/10/23 02:42:53;;;;;;;6.10;4.93;;;;;;;;;;5153725;27;20450;-71
2022/10/23 02:45:23;;;;;;;10.03;5.23;;;;;;;;;;5155448;27;20976;-71
2022/10/23 02:47:53;;;;;;;8.73;4.97;;;;;;;;;;5155762;27;20454;-71
2022/10/23 02:50:25;;;;;;;5.50;4.27;;;;;;;;;;5153573;27;20452;-71
2022/10/23 02:52:58;;;;;;;7.37;4.97;;;;;;;;;;5155569;27;20454;-71
2022/10/23 02:55:31;;;;;;;6.73;4.60;;;;;;;;;;5155061;27;20502;-71
2022/10/23 02:58:03;;;;;;;5.60;5.10;;;;;;;;;;5155800;27;20455;-71
2022/10/23 03:00:31;;;;;;;7.07;4.90;;;;;;;;;;5154036;27;20459;-72
2022/10/23 03:02:59;;;;;;;6.10;4.57;;;;;;;;;;5155695;27;20466;-71
2022/10/23 03:05:29;;;;;;;6.83;4.10;;;;;;;;;;5154798;27;20475;-71
2022/10/23 03:07:57;;;;;;;7.13;4.63;;;;;;;;;;5155502;27;20451;-71
2022/10/23 03:10:24;;;;;;;6.13;4.50;;;;;;;;;;5155430;27;20458;-71
2022/10/23 03:12:52;;;;;;;5.10;4.20;;;;;;;;;;5155222;27;20479;-71
2022/10/23 03:15:19;;;;;;;4.67;4.27;;;;;;;;;;5154636;27;20491;-71
2022/10/23 03:17:46;;;;;;;5.53;4.50;;;;;;;;;;5155216;27;20941;-71
2022/10/23 03:20:13;;;;;;;8.27;4.20;;;;;;;;;;5154908;27;20447;-71
2022/10/23 03:22:40;;;;;;;5.13;4.50;;;;;;;;;;5152962;27;20454;-71
2022/10/23 03:25:09;;;;;;;4.27;3.87;;;;;;;;;;5154600;27;20463;-71
2022/10/23 03:27:37;;;;;;;6.63;4.33;;;;;;;;;;5153235;27;20447;-71
2022/10/23 03:30:05;;;;;;;4.57;4.17;;;;;;;;;;5155294;27;20924;-71
2022/10/23 03:32:32;;;;;;;6.73;4.30;;;;;;;;;;5154733;27;20841;-71
2022/10/23 03:34:59;;;;;;;6.97;5.30;;;;;;;;;;5154209;27;20483;-72
2022/10/23 03:37:26;;;;;;;4.70;4.30;;;;;;;;;;5154976;27;20444;-71
2022/10/23 03:39:53;;;;;;;6.03;5.43;;;;;;;;;;5154801;27;20448;-71
2022/10/23 03:42:22;;;;;;;7.50;5.50;;;;;;;;;;5153324;27;20452;-72
2022/10/23 03:44:49;;;;;;;6.10;5.17;;;;;;;;;;5152676;27;20819;-71
2022/10/23 03:47:16;;;;;;;7.93;4.80;;;;;;;;;;5154783;27;20443;-71
2022/10/23 03:49:43;;;;;;;4.93;4.37;;;;;;;;;;5154670;27;20456;-71
2022/10/23 03:52:10;;;;;;;5.00;4.50;;;;;;;;;;5154666;27;20825;-71
2022/10/23 03:54:37;;;;;;;6.77;5.20;;;;;;;;;;5153732;27;20486;-71
2022/10/23 03:57:05;;;;;;;5.80;5.00;;;;;;;;;;5151941;27;20475;-71
2022/10/23 03:59:33;;;;;;;4.97;4.27;;;;;;;;;;5154438;27;20451;-71
2022/10/23 04:02:00;;;;;;;6.50;5.90;;;;;;;;;;5150914;27;20470;-71
2022/10/23 04:04:27;;;;;;;6.57;4.37;;;;;;;;;;5153764;27;20929;-71
2022/10/23 04:06:55;;;;;;;10.77;5.10;;;;;;;;;;5154142;27;20980;-71
2022/10/23 04:09:22;;;;;;;5.43;4.87;;;;;;;;;;5154347;27;20448;-71
2022/10/23 04:11:49;;;;;;;6.47;4.33;;;;;;;;;;5154106;27;20468;-71
2022/10/23 04:14:16;;;;;;;10.20;4.07;;;;;;;;;;5153503;27;21021;-71
2022/10/23 04:16:44;;;;;;;21.90;5.23;;;;;;;;;;5154099;27;20479;-71
2022/10/23 04:19:12;;;;;;;4.97;4.50;;;;;;;;;;5154263;27;20448;-71
2022/10/23 04:21:39;;;;;;;7.10;5.00;;;;;;;;;;5154017;27;20457;-71
2022/10/23 04:24:06;;;;;;;7.10;6.10;;;;;;;;;;5153577;27;20823;-71
2022/10/23 04:26:33;;;;;;;11.30;7.97;;;;;;;;;;5153811;27;20478;-71
2022/10/23 04:29:00;;;;;;;9.40;7.00;;;;;;;;;;5154130;27;20966;-71
2022/10/23 04:31:28;;;;;;;7.70;5.43;;;;;;;;;;5151454;27;20968;-71
2022/10/23 04:33:56;;;;;;;7.90;6.30;;;;;;;;;;5153342;27;20446;-71
2022/10/23 04:36:23;;;;;;;7.53;5.90;;;;;;;;;;5151822;27;20464;-71
2022/10/23 04:38:52;;;;;;;21.67;8.27;;;;;;;;;;5153906;27;20458;-71
2022/10/23 04:41:19;;;;;;;76.47;13.80;;;;;;;;;;5154071;27;20451;-71
2022/10/23 04:43:46;;;;;;;30.90;14.23;;;;;;;;;;5150724;27;20979;-71
2022/10/23 04:46:13;;;;;;;56.37;14.37;;;;;;;;;;5153803;27;20456;-71
2022/10/23 04:48:40;;;;;;;53.37;16.80;;;;;;;;;;5153706;27;20443;-71
2022/10/23 04:51:10;;;;;;;127.17;19.73;;;;;;;;;;5153856;27;20448;-71
2022/10/23 04:53:37;;;;;;;56.40;15.70;;;;;;;;;;5153123;27;20462;-71
2022/10/23 04:56:05;;;;;;;77.10;17.40;;;;;;;;;;5154972;27;20518;-71
2022/10/23 04:58:32;;;;;;;23.40;8.90;;;;;;;;;;5157918;27;20538;-71
2022/10/23 05:01:00;;;;;;;55.23;9.60;;;;;;;;;;5156985;27;20456;-71
2022/10/23 05:03:27;;;;;;;46.10;7.30;;;;;;;;;;5157613;27;20448;-71
2022/10/23 05:05:55;;;;;;;14.73;5.30;;;;;;;;;;5155016;27;20463;-72
2022/10/23 05:08:24;;;;;;;30.10;6.03;;;;;;;;;;5157795;27;20831;-71
2022/10/23 05:10:51;;;;;;;22.37;6.23;;;;;;;;;;5155778;27;20455;-71
2022/10/23 05:13:19;;;;;;;120.23;9.90;;;;;;;;;;5157674;27;20962;-71
2022/10/23 05:15:47;;;;;;;28.73;5.80;;;;;;;;;;5157054;27;20819;-71
2022/10/23 05:18:16;;;;;;;12.63;7.07;;;;;;;;;;5157743;27;20463;-71
2022/10/23 05:20:45;;;;;;;29.10;5.33;;;;;;;;;;5157557;27;20459;-71
2022/10/23 05:23:14;;;;;;;6.47;4.70;;;;;;;;;;5157528;27;21015;-71
2022/10/23 05:25:43;;;;;;;10.50;6.57;;;;;;;;;;5156855;27;20455;-71
2022/10/23 05:28:10;;;;;;;9.03;5.93;;;;;;;;;;5157546;27;20450;-71
2022/10/23 05:30:37;;;;;;;9.90;7.07;;;;;;;;;;5157411;27;20439;-71
2022/10/23 05:33:05;;;;;;;11.83;7.00;;;;;;;;;;5157518;27;20446;-71
2022/10/23 05:35:32;;;;;;;18.07;6.13;;;;;;;;;;5156375;27;20487;-71
2022/10/23 05:38:00;;;;;;;47.40;9.70;;;;;;;;;;5157415;27;20443;-71
2022/10/23 05:40:27;;;;;;;29.50;7.30;;;;;;;;;;5155304;27;20924;-71
2022/10/23 05:42:56;;;;;;;44.90;8.60;;;;;;;;;;5154910;27;20451;-71
2022/10/23 05:45:23;;;;;;;33.73;7.90;;;;;;;;;;5156423;27;20463;-71
2022/10/23 05:47:50;;;;;;;45.50;9.33;;;;;;;;;;5156976;27;20487;-71
2022/10/23 05:50:17;;;;;;;106.40;11.47;;;;;;;;;;5157199;27;20453;-71
2022/10/23 05:52:47;;;;;;;85.43;11.70;;;;;;;;;;5156895;27;20451;-71
2022/10/23 05:55:14;;;;;;;43.17;9.30;;;;;;;;;;5155601;27;20640;-71
2022/10/23 05:57:41;;;;;;;85.13;13.47;;;;;;;;;;5156276;27;20454;-71
2022/10/23 06:00:11;;;;;;;90.47;11.60;;;;;;;;;;5155868;27;20447;-71
2022/10/23 06:02:38;;;;;;;37.50;9.63;;;;;;;;;;5156621;27;20454;-71
2022/10/23 06:05:05;;;;;;;63.10;10.23;;;;;;;;;;5156149;27;20476;-71
2022/10/23 06:07:32;;;;;;;62.07;10.80;;;;;;;;;;5155359;27;20447;-71
2022/10/23 06:10:00;;;;;;;27.80;8.33;;;;;;;;;;5156704;27;20455;-71
2022/10/23 06:12:27;;;;;;;63.17;9.23;;;;;;;;;;5156573;27;20511;-71
2022/10/23 06:14:54;;;;;;;101.50;14.53;;;;;;;;;;5155627;27;20497;-71
2022/10/23 06:17:22;;;;;;;67.50;10.70;;;;;;;;;;5156428;27;20451;-71
2022/10/23 06:19:49;;;;;;;31.57;8.13;;;;;;;;;;5156488;27;20456;-71
2022/10/23 06:22:17;;;;;;;18.00;8.13;;;;;;;;;;5156297;27;20455;-71
2022/10/23 06:24:44;;;;;;;38.13;8.77;;;;;;;;;;5155706;27;20522;-71
2022/10/23 06:27:11;;;;;;;27.97;8.13;;;;;;;;;;5153974;27;20825;-71
2022/10/23 06:29:40;;;;;;;35.77;8.43;;;;;;;;;;5156124;27;20454;-71
2022/10/23 06:32:07;;;;;;;81.07;12.03;;;;;;;;;;5154257;27;20483;-71
2022/10/23 06:34:36;;;;;;;28.40;14.70;;;;;;;;;;5155505;27;20965;-71
2022/10/23 06:37:03;;;;;;;46.97;28.70;;;;;;;;;;5156095;27;20468;-71
2022/10/23 06:39:30;;;;;;;20.70;10.80;;;;;;;;;;5155982;27;20453;-71
2022/10/23 06:41:57;;;;;;;55.07;9.67;;;;;;;;;;5155919;27;20439;-71
2022/10/23 06:44:24;;;;;;;19.23;5.10;;;;;;;;;;5152718;27;20446;-71
2022/10/23 06:46:51;;;;;;;81.97;22.80;;;;;;;;;;5155976;27;20463;-71
2022/10/23 06:49:19;;;;;;;24.27;5.97;;;;;;;;;;5155906;27;20447;-71
2022/10/23 06:51:47;;;;;;;22.23;5.30;;;;;;;;;;5155797;27;20455;-71
2022/10/23 06:54:14;;;;;;;90.63;8.60;;;;;;;;;;5155499;27;20452;-71
2022/10/23 06:56:41;;;;;;;51.07;8.30;;;;;;;;;;5155527;27;20506;-71
2022/10/23 06:59:08;;;;;;;50.07;7.80;;;;;;;;;;5155760;27;20452;-71
2022/10/23 07:01:36;;;;;;;26.00;7.20;;;;;;;;;;5151251;27;20814;-71
2022/10/23 07:04:03;;;;;;;10.70;6.10;;;;;;;;;;5155145;27;20941;-71
2022/10/23 07:06:30;;;;;;;13.30;7.60;;;;;;;;;;5152833;27;20468;-71
2022/10/23 07:08:59;;;;;;;21.17;7.17;;;;;;;;;;5155413;27;20524;-71
2022/10/23 07:11:26;;;;;;;29.03;7.07;;;;;;;;;;5155246;27;20470;-71
2022/10/23 07:13:54;;;;;;;14.07;6.10;;;;;;;;;;5155007;27;20920;-71
2022/10/23 07:16:22;;;;;;;18.87;6.23;;;;;;;;;;5155314;27;20484;-71
2022/10/23 07:18:50;;;;;;;24.97;8.50;;;;;;;;;;5155034;27;20454;-71
2022/10/23 07:21:17;;;;;;;41.73;8.10;;;;;;;;;;5155366;27;20450;-71
2022/10/23 07:23:44;;;;;;;53.20;10.70;;;;;;;;;;5154317;27;20451;-72
2022/10/23 07:26:14;;;;;;;28.87;7.83;;;;;;;;;;5155201;27;20554;-71
2022/10/23 07:28:42;;;;;;;18.77;6.80;;;;;;;;;;5155061;27;20453;-71
2022/10/23 07:31:09;;;;;;;37.33;8.30;;;;;;;;;;5155319;27;20443;-72
2022/10/23 07:33:37;;;;;;;62.97;8.90;;;;;;;;;;5154298;27;20479;-71
2022/10/23 07:36:04;;;;;;;13.93;6.00;;;;;;;;;;5153633;27;20509;-71
2022/10/23 07:38:32;;;;;;;49.10;7.80;;;;;;;;;;5154828;27;20458;-71
2022/10/23 07:41:00;;;;;;;56.10;8.20;;;;;;;;;;5153449;27;20864;-71
2022/10/23 07:43:28;;;;;;;48.53;8.60;;;;;;;;;;5153750;27;20463;-71
2022/10/23 07:45:56;;;;;;;58.10;8.33;;;;;;;;;;5154744;27;20464;-71
2022/10/23 07:48:25;;;;;;;16.73;5.37;;;;;;;;;;5154834;27;20451;-71
2022/10/23 07:50:53;;;;;;;17.47;5.30;;;;;;;;;;5154623;27;20992;-71
2022/10/23 07:53:21;;;;;;;58.13;8.17;;;;;;;;;;5154691;27;20451;-71
2022/10/23 07:55:54;;;;;;;24.60;7.43;;;;;;;;;;5153877;27;20487;-71
2022/10/23 07:58:22;;;;;;;14.13;5.30;;;;;;;;;;5154533;27;20448;-71
2022/10/23 08:00:54;;;;;;;31.27;7.17;;;;;;;;;;5153026;27;20455;-71
2022/10/23 08:03:21;;;;;;;13.40;7.10;;;;;;;;;;5154138;27;20447;-71
2022/10/23 08:05:48;;;;;;;56.07;17.47;;;;;;;;;;5153842;27;20471;-71
2022/10/23 08:08:16;;;;;;;11.47;6.27;;;;;;;;;;5154459;27;20792;-71
2022/10/23 08:10:43;;;;;;;10.23;4.90;;;;;;;;;;5152104;27;20451;-71
2022/10/23 08:13:12;;;;;;;14.43;5.90;;;;;;;;;;5154470;27;20458;-71
2022/10/23 08:15:39;;;;;;;14.23;6.30;;;;;;;;;;5151579;27;20488;-71
2022/10/23 08:18:08;;;;;;;9.73;5.67;;;;;;;;;;5154192;27;20455;-71
2022/10/23 08:20:38;;;;;;;8.63;5.60;;;;;;;;;;5154247;27;20454;-71
2022/10/23 08:23:06;;;;;;;12.00;5.77;;;;;;;;;;5154237;27;20459;-71
2022/10/23 08:25:33;;;;;;;14.57;6.57;;;;;;;;;;5153328;27;20467;-71
2022/10/23 08:28:00;;;;;;;10.00;5.30;;;;;;;;;;5154074;27;20443;-71
2022/10/23 08:30:28;;;;;;;10.03;6.27;;;;;;;;;;5153287;27;20448;-71
2022/10/23 08:32:55;;;;;;;12.53;6.20;;;;;;;;;;5154166;27;20967;-71
2022/10/23 08:35:23;;;;;;;10.07;7.13;;;;;;;;;;5153443;27;20475;-71
2022/10/23 08:37:51;;;;;;;15.13;6.20;;;;;;;;;;5153931;27;20443;-71
2022/10/23 08:40:19;;;;;;;11.87;4.97;;;;;;;;;;5154104;27;20452;-71
2022/10/23 08:42:48;;;;;;;5.20;4.60;;;;;;;;;;5151912;27;20440;-71
2022/10/23 08:45:24;;;;;;;8.10;5.20;;;;;;;;;;5153310;27;20551;-71
2022/10/23 08:47:54;;;;;;;10.67;6.30;;;;;;;;;;5153890;27;20916;-71
2022/10/23 08:50:26;;;;;;;15.07;7.53;;;;;;;;;;5152314;27;20464;-71
2022/10/23 08:52:58;;;;;;;10.97;7.57;;;;;;;;;;5154040;27;20808;-71
2022/10/23 08:55:28;;;;;;;10.97;6.60;;;;;;;;;;5153172;27;20478;-71
2022/10/23 08:57:59;;;;;;;8.40;6.93;;;;;;;;;;5153913;27;20447;-71
2022/10/23 09:00:26;;;;;;;11.90;8.30;;;;;;;;;;5152741;27;20835;-71
2022/10/23 09:02:54;;;;;;;10.30;6.53;;;;;;;;;;5153822;27;20792;-71
2022/10/23 09:05:27;;;;;;;10.60;7.10;;;;;;;;;;5153109;27;20471;-71
2022/10/23 09:08:04;;;;;;;13.73;7.47;;;;;;;;;;5153807;27;20466;-71
2022/10/23 09:10:38;;;;;;;10.93;9.10;;;;;;;;;;5153633;27;20821;-73
2022/10/23 09:13:22;;;;;;;8.60;6.67;;;;;;;;;;5153867;27;20436;-73
2022/10/23 09:15:53;;;;;;;12.83;8.20;;;;;;;;;;5153251;27;20497;-73
2022/10/23 09:18:21;;;;;;;9.73;7.57;;;;;;;;;;5153621;27;20458;-73
2022/10/23 09:20:51;;;;;;;10.70;7.67;;;;;;;;;;5151908;27;20454;-73
2022/10/23 09:23:20;;;;;;;6.33;5.73;;;;;;;;;;5153758;27;20933;-73
2022/10/23 09:25:47;;;;;;;8.97;6.73;;;;;;;;;;5151450;27;21283;-73
2022/10/23 09:28:19;;;;;;;10.33;7.10;;;;;;;;;;5153726;27;20456;-73
2022/10/23 09:30:46;;;;;;;5.90;5.00;;;;;;;;;;5153407;27;20448;-73
2022/10/23 09:33:14;;;;;;;5.73;4.87;;;;;;;;;;5153714;27;20804;-73
2022/10/23 09:35:53;;;;;;;5.27;4.77;;;;;;;;;;5152679;27;20483;-72
2022/10/23 09:38:30;;;;;;;7.50;5.70;;;;;;;;;;5153421;27;20458;-73
2022/10/23 09:40:59;;;;;;;11.33;4.83;;;;;;;;;;5153624;27;20443;-73
2022/10/23 09:43:27;;;;;;;5.03;4.63;;;;;;;;;;5155344;27;20487;-73
2022/10/23 09:45:58;;;;;;;3.93;3.63;;;;;;;;;;5157017;27;20554;-73
2022/10/23 09:48:25;;;;;;;4.77;3.60;;;;;;;;;;5157123;27;20451;-73
2022/10/23 09:50:54;;;;;;;7.27;6.60;;;;;;;;;;5157196;27;20450;-73
2022/10/23 09:53:32;;;;;;;4.53;4.13;;;;;;;;;;5156939;27;20447;-74
2022/10/23 09:56:01;;;;;;;3.77;3.47;;;;;;;;;;5154674;27;20489;-73
2022/10/23 09:58:31;;;;;;;6.50;4.47;;;;;;;;;;5157021;27;20815;-73
2022/10/23 10:00:58;;;;;;;5.23;4.73;;;;;;;;;;5154077;27;20456;-73
2022/10/23 10:03:26;;;;;;;4.23;3.70;;;;;;;;;;5156763;27;20466;-73
2022/10/23 10:05:59;;;;;;;4.13;3.73;;;;;;;;;;5156861;27;20470;-73
2022/10/23 10:08:30;;;;;;;4.47;4.07;;;;;;;;;;5156741;27;20993;-73
2022/10/23 10:11:00;;;;;;;4.20;3.80;;;;;;;;;;5156707;27;20448;-73
2022/10/23 10:13:38;;;;;;;6.80;4.00;;;;;;;;;;5156062;27;20458;-74
2022/10/23 10:16:07;;;;;;;7.00;6.00;;;;;;;;;;5156585;27;20471;-73
2022/10/23 10:18:37;;;;;;;6.50;5.87;;;;;;;;;;5156488;27;20815;-73
2022/10/23 10:21:13;;;;;;;6.33;5.30;;;;;;;;;;5156801;27;20439;-73
2022/10/23 10:23:47;;;;;;;8.53;6.13;;;;;;;;;;5155881;27;20768;-73
2022/10/23 10:26:20;;;;;;;9.53;6.03;;;;;;;;;;5156283;27;20555;-74
2022/10/23 10:28:54;;;;;;;9.23;6.10;;;;;;;;;;5156270;27;20531;-73
2022/10/23 10:31:26;;;;;;;7.90;4.50;;;;;;;;;;5154629;27;20924;-74
2022/10/23 10:34:00;;;;;;;6.23;4.80;;;;;;;;;;5155637;27;20534;-74
2022/10/23 10:36:45;;;;;;;5.93;5.03;;;;;;;;;;5156067;27;20493;-73
2022/10/23 10:39:20;;;;;;;7.70;5.73;;;;;;;;;;5156194;27;20451;-74
2022/10/23 10:41:52;;;;;;;6.97;5.60;;;;;;;;;;5154632;27;20463;-74
2022/10/23 10:44:35;;;;;;;6.33;4.63;;;;;;;;;;5153561;27;20444;-74
2022/10/23 10:47:06;;;;;;;7.43;6.63;;;;;;;;;;5155717;27;20464;-74
2022/10/23 10:49:36;;;;;;;6.27;5.40;;;;;;;;;;5155995;27;20945;-74
2022/10/23 10:52:08;;;;;;;8.83;6.10;;;;;;;;;;5155767;27;20443;-74
2022/10/23 10:54:40;;;;;;;9.57;6.37;;;;;;;;;;5154512;27;20447;-74
2022/10/23 10:57:13;;;;;;;7.20;5.40;;;;;;;;;;5155613;27;20491;-74
2022/10/23 10:59:42;;;;;;;7.67;4.83;;;;;;;;;;5155627;27;20448;-74
2022/10/23 11:02:18;;;;;;;5.60;4.87;;;;;;;;;;5154903;27;20447;-74
2022/10/23 11:04:48;;;;;;;5.63;4.80;;;;;;;;;;5154840;27;20458;-74
2022/10/23 11:07:18;;;;;;;5.83;5.17;;;;;;;;;;5155500;27;20447;-74
2022/10/23 11:09:47;;;;;;;5.13;4.37;;;;;;;;;;5155509;27;20448;-74
2022/10/23 11:12:16;;;;;;;6.03;5.07;;;;;;;;;;5153341;27;20467;-74
2022/10/23 11:14:44;;;;;;;6.13;5.17;;;;;;;;;;5154813;27;20452;-74
2022/10/23 11:17:15;;;;;;;7.77;5.67;;;;;;;;;;5153412;27;20570;-74
2022/10/23 11:19:44;;;;;;;7.17;5.23;;;;;;;;;;5155307;27;20452;-74
2022/10/23 11:22:12;;;;;;;5.60;5.03;;;;;;;;;;5155270;27;20453;-74
2022/10/23 11:24:57;;;;;;;6.40;5.40;;;;;;;;;;5154394;27;20443;-74
2022/10/23 11:27:28;;;;;;;10.20;5.63;;;;;;;;;;5155187;27;20446;-74
2022/10/23 11:30:12;;;;;;;5.30;4.13;;;;;;;;;;5155040;27;20452;-74
2022/10/23 11:32:48;;;;;;;5.90;4.70;;;;;;;;;;5154958;27;20451;-74
2022/10/23 11:35:23;;;;;;;8.17;4.77;;;;;;;;;;5154440;27;20475;-74
2022/10/23 11:38:01;;;;;;;7.37;5.23;;;;;;;;;;5154824;27;20493;-74
2022/10/23 11:40:30;;;;;;;7.63;5.03;;;;;;;;;;5154862;27;20451;-74
2022/10/23 11:42:57;;;;;;;6.07;4.73;;;;;;;;;;5152278;27;20455;-74
2022/10/23 11:45:35;;;;;;;6.17;5.30;;;;;;;;;;5153069;27;20493;-74
2022/10/23 11:48:03;;;;;;;8.63;4.20;;;;;;;;;;5154842;27;20447;-74
2022/10/23 11:50:31;;;;;;;3.83;3.40;;;;;;;;;;5154645;27;20452;-74
2022/10/23 11:53:06;;;;;;;8.70;4.37;;;;;;;;;;5154802;27;20815;-74
2022/10/23 11:55:34;;;;;;;8.90;3.83;;;;;;;;;;5151849;27;20558;-74
2022/10/23 11:58:22;;;;;;;4.20;3.53;;;;;;;;;;5154548;27;20502;-74
2022/10/23 12:00:58;;;;;;;9.33;4.27;;;;;;;;;;5152845;27;20462;-74
2022/10/23 12:03:28;;;;;;;5.33;4.13;;;;;;;;;;5154155;27;20455;-74
2022/10/23 12:05:57;;;;;;;4.47;4.03;;;;;;;;;;5153337;27;20464;-74
2022/10/23 12:08:27;;;;;;;4.23;3.60;;;;;;;;;;5154360;27;20440;-74
2022/10/23 12:10:56;;;;;;;6.97;3.87;;;;;;;;;;5154231;27;20454;-74
2022/10/23 12:13:44;;;;;;;5.40;4.10;;;;;;;;;;5154003;27;20455;-74
2022/10/23 12:16:11;;;;;;;3.87;3.50;;;;;;;;;;5154334;27;21036;-74
2022/10/23 12:18:48;;;;;;;3.80;3.40;;;;;;;;;;5154086;27;21012;-74
2022/10/23 12:21:17;;;;;;;5.00;3.60;;;;;;;;;;5154191;27;20453;-74
2022/10/23 12:23:54;;;;;;;5.97;4.63;;;;;;;;;;5153334;27;20948;-74
2022/10/23 12:26:26;;;;;;;5.73;3.93;;;;;;;;;;5152791;27;20470;-74
2022/10/23 12:28:58;;;;;;;5.07;3.47;;;;;;;;;;5154054;27;20459;-74
2022/10/23 12:31:32;;;;;;;5.23;3.73;;;;;;;;;;5152774;27;20496;-74
2022/10/23 12:34:04;;;;;;;4.33;3.57;;;;;;;;;;5153448;27;20940;-74
2022/10/23 12:36:48;;;;;;;3.87;3.47;;;;;;;;;;5153801;27;20558;-74
2022/10/23 12:39:25;;;;;;;5.57;3.83;;;;;;;;;;5154029;27;20444;-74
2022/10/23 12:41:54;;;;;;;5.37;4.10;;;;;;;;;;5153790;27;20451;-74
2022/10/23 12:44:22;;;;;;;4.50;3.97;;;;;;;;;;5150926;27;20974;-74
2022/10/23 12:46:50;;;;;;;4.37;3.77;;;;;;;;;;5153787;27;20478;-74
2022/10/23 12:49:18;;;;;;;4.00;3.60;;;;;;;;;;5154009;27;20813;-74
2022/10/23 12:51:47;;;;;;;4.63;4.17;;;;;;;;;;5153670;27;21075;-74
2022/10/23 12:54:16;;;;;;;15.80;4.80;;;;;;;;;;5153222;27;20567;-74
2022/10/23 12:56:44;;;;;;;5.20;4.40;;;;;;;;;;5153579;27;20471;-74
2022/10/23 12:59:16;;;;;;;7.60;4.30;;;;;;;;;;5154080;27;20516;-74
2022/10/23 13:01:44;;;;;;;4.17;3.60;;;;;;;;;;5150370;27;20452;-74
2022/10/23 13:04:17;;;;;;;6.67;3.53;;;;;;;;;;5153260;27;20465;-74
2022/10/23 13:06:44;;;;;;;4.57;4.10;;;;;;;;;;5153732;27;20490;-74
2022/10/23 13:09:18;;;;;;;4.70;4.20;;;;;;;;;;5153733;27;20541;-74
2022/10/23 13:11:45;;;;;;;3.67;3.37;;;;;;;;;;5153404;27;20473;-74
2022/10/23 13:14:13;;;;;;;3.83;3.43;;;;;;;;;;5152994;27;20546;-74
2022/10/23 13:16:42;;;;;;;5.63;4.13;;;;;;;;;;5153909;27;20566;-74
2022/10/23 13:19:22;;;;;;;3.93;3.23;;;;;;;;;;5157763;27;20779;-74
2022/10/23 13:21:49;;;;;;;3.47;3.17;;;;;;;;;;5157564;27;20970;-74
2022/10/23 13:24:19;;;;;;;3.57;3.00;;;;;;;;;;5156768;27;20454;-74
2022/10/23 13:26:47;;;;;;;3.43;3.13;;;;;;;;;;5157351;27;20848;-74
2022/10/23 13:29:19;;;;;;;3.37;3.07;;;;;;;;;;5157517;27;20959;-74
2022/10/23 13:31:48;;;;;;;4.10;2.93;;;;;;;;;;5157289;27;20465;-74
2022/10/23 13:34:18;;;;;;;8.93;3.50;;;;;;;;;;5156692;27;20541;-74
2022/10/23 13:36:52;;;;;;;14.03;3.80;;;;;;;;;;5157142;27;20470;-74
2022/10/23 13:39:23;;;;;;;4.03;2.77;;;;;;;;;;5157409;27;20534;-74
2022/10/23 13:41:50;;;;;;;4.57;2.50;;;;;;;;;;5157161;27;20454;-74
2022/10/23 13:44:18;;;;;;;7.83;3.13;;;;;;;;;;5153759;27;20459;-74
2022/10/23 13:46:47;;;;;;;4.50;2.50;;;;;;;;;;5157251;27;20842;-74
2022/10/23 13:49:15;;;;;;;4.13;3.73;;;;;;;;;;5157079;27;20483;-74
2022/10/23 13:51:46;;;;;;;4.30;2.60;;;;;;;;;;5156870;27;20457;-74
2022/10/23 13:54:15;;;;;;;3.07;2.77;;;;;;;;;;5156423;27;20496;-74
2022/10/23 13:56:42;;;;;;;8.83;3.50;;;;;;;;;;5156757;27;20836;-74
2022/10/23 13:59:09;;;;;;;3.73;2.60;;;;;;;;;;5157157;27;20480;-74
2022/10/23 14:01:36;;;;;;;4.40;2.40;;;;;;;;;;5155328;27;20963;-74
2022/10/23 14:04:05;;;;;;;3.13;2.27;;;;;;;;;;5156168;27;20455;-74
2022/10/23 14:06:36;;;;;;;3.63;2.67;;;;;;;;;;5156626;27;20478;-74
2022/10/23 14:09:05;;;;;;;3.20;2.40;;;;;;;;;;5156755;27;20451;-74
2022/10/23 14:11:32;;;;;;;4.77;3.30;;;;;;;;;;5156666;27;20835;-74
2022/10/23 14:13:59;;;;;;;5.73;3.67;;;;;;;;;;5156162;27;20790;-74
2022/10/23 14:16:26;;;;;;;12.00;10.03;;;;;;;;;;5156372;27;20470;-74
2022/10/23 14:18:53;;;;;;;5.53;3.33;;;;;;;;;;5156560;27;20483;-74
2022/10/23 14:21:22;;;;;;;7.73;3.10;;;;;;;;;;5156420;27;20447;-74
2022/10/23 14:23:51;;;;;;;5.40;3.03;;;;;;;;;;5155656;27;20456;-74
2022/10/23 14:26:19;;;;;;;2.93;2.60;;;;;;;;;;5156198;27;20481;-74
2022/10/23 14:28:46;;;;;;;8.53;2.83;;;;;;;;;;5155211;27;20448;-74
2022/10/23 14:31:15;;;;;;;2.73;2.23;;;;;;;;;;5156287;27;20452;-74
2022/10/23 14:33:42;;;;;;;6.43;3.27;;;;;;;;;;5155545;27;20464;-74
2022/10/23 14:36:10;;;;;;;5.03;3.00;;;;;;;;;;5155953;27;20468;-74
2022/10/23 14:38:37;;;;;;;5.07;2.87;;;;;;;;;;5155911;27;20483;-73
2022/10/23 14:41:09;;;;;;;4.40;3.30;;;;;;;;;;5156241;27;20801;-73
2022/10/23 14:43:37;;;;;;;5.07;4.17;;;;;;;;;;5153455;27;20452;-74
2022/10/23 14:46:08;;;;;;;8.43;4.30;;;;;;;;;;5155997;27;20840;-74
2022/10/23 14:48:36;;;;;;;12.33;4.60;;;;;;;;;;5155846;27;20467;-74
2022/10/23 14:51:05;;;;;;;7.13;3.87;;;;;;;;;;5155967;27;20929;-74